createdAt,value
2024-01-11T00:01:18.494Z,50.1
2024-01-11T00:04:19.526Z,48.3
2024-01-11T00:07:20.558Z,48.3
2024-01-11T00:10:21.584Z,46.8
2024-01-11T00:11:54.921Z,48.5
2024-01-11T00:13:22.607Z,49.4
2024-01-11T00:16:23.643Z,47.8
2024-01-11T00:19:24.666Z,49.5
2024-01-11T00:22:25.689Z,48.6
2024-01-11T00:25:26.726Z,46.8
2024-01-11T00:28:27.752Z,47.3
2024-01-11T00:31:28.777Z,46.2
2024-01-11T00:34:29.805Z,45.1
2024-01-11T00:37:30.831Z,47.4
2024-01-11T00:40:31.859Z,46.6
2024-01-11T00:42:05.211Z,46.4
2024-01-11T00:43:32.896Z,47.4
2024-01-11T00:46:33.889Z,46
2024-01-11T00:49:34.920Z,45.8
2024-01-11T00:52:35.945Z,46.1
2024-01-11T00:55:36.967Z,44.9
2024-01-11T00:58:37.999Z,46.1
2024-01-11T01:01:39.030Z,45.8
2024-01-11T01:04:40.053Z,45.4
2024-01-11T01:07:41.079Z,47
2024-01-11T01:10:42.109Z,46.7
2024-01-11T01:12:15.479Z,46.7
2024-01-11T01:13:43.142Z,45.2
2024-01-11T01:16:44.164Z,46
2024-01-11T01:19:45.195Z,46.4
2024-01-11T01:22:46.222Z,45.2
2024-01-11T01:25:47.263Z,45.8
2024-01-11T01:28:48.285Z,45.5
2024-01-11T01:31:49.313Z,45.1
2024-01-11T01:34:50.331Z,47.5
2024-01-11T01:37:51.365Z,46.7
2024-01-11T01:40:52.394Z,46.8
2024-01-11T01:42:25.781Z,47.1
2024-01-11T01:43:53.420Z,47.3
2024-01-11T01:46:54.422Z,47
2024-01-11T01:49:55.454Z,45.3
2024-01-11T01:52:56.478Z,46.8
2024-01-11T01:55:57.509Z,46.9
2024-01-11T01:58:58.537Z,46.6
2024-01-11T02:01:59.496Z,45.3
2024-01-11T02:08:01.621Z,46.8
2024-01-11T02:11:02.646Z,45.4
2024-01-11T02:12:36.056Z,45.4
2024-01-11T02:14:03.677Z,44.8
2024-01-11T02:17:04.709Z,45.8
2024-01-11T02:20:05.732Z,44.6
2024-01-11T02:23:06.686Z,46.5
2024-01-11T02:26:07.786Z,46.9
2024-01-11T02:29:08.820Z,45.1
2024-01-11T02:32:09.854Z,44.4
2024-01-11T02:35:10.880Z,45.3
2024-01-11T02:38:11.906Z,47.2
2024-01-11T02:41:12.936Z,45.6
2024-01-11T02:42:46.362Z,44.9
2024-01-11T02:44:13.961Z,45.6
2024-01-11T02:47:14.967Z,46.2
2024-01-11T02:50:15.993Z,47.1
2024-01-11T02:53:17.021Z,45.5
2024-01-11T02:56:18.045Z,44
2024-01-11T02:59:19.078Z,43.1
2024-01-11T03:02:20.104Z,44.2
2024-01-11T03:05:21.131Z,44.9
2024-01-11T03:08:22.160Z,45.6
2024-01-11T03:11:23.184Z,45.3
2024-01-11T03:12:56.416Z,45.6
2024-01-11T03:14:24.218Z,45.9
2024-01-11T03:17:25.250Z,44.5
2024-01-11T03:20:26.271Z,45.4
2024-01-11T03:23:27.300Z,47
2024-01-11T03:26:28.331Z,46.4
2024-01-11T03:29:29.354Z,46.3
2024-01-11T03:32:30.384Z,45.1
2024-01-11T03:35:31.413Z,47.5
2024-01-11T03:38:32.438Z,46
2024-01-11T03:41:33.465Z,47.2
2024-01-11T03:43:06.928Z,45
2024-01-11T03:44:34.476Z,46.4
2024-01-11T03:47:35.504Z,45.4
2024-01-11T03:50:36.533Z,45.4
2024-01-11T03:53:37.557Z,46.1
2024-01-11T03:56:38.587Z,47.3
2024-01-11T03:59:39.611Z,47.5
2024-01-11T04:02:40.638Z,46.4
2024-01-11T04:05:41.596Z,45.4
2024-01-11T04:08:42.695Z,44.4
2024-01-11T04:11:43.723Z,44.7
2024-01-11T04:13:17.207Z,45.7
2024-01-11T04:14:44.753Z,44.7
2024-01-11T04:17:45.786Z,46.8
2024-01-11T04:20:46.816Z,44.2
2024-01-11T04:23:47.835Z,44
2024-01-11T04:26:48.869Z,43.8
2024-01-11T04:29:49.898Z,43
2024-01-11T04:32:50.921Z,44.3
2024-01-11T04:35:51.946Z,43.2
2024-01-11T04:38:52.983Z,42.6
2024-01-11T04:41:54.005Z,43
2024-01-11T04:43:27.414Z,43.7
2024-01-11T04:44:54.944Z,43
2024-01-11T04:47:56.040Z,43
2024-01-11T04:50:57.061Z,42.7
2024-01-11T04:53:58.097Z,43
2024-01-11T04:56:59.126Z,43.2
2024-01-11T05:00:00.145Z,44.5
2024-01-11T05:03:01.176Z,45.1
2024-01-11T05:06:02.203Z,44.7
2024-01-11T05:09:03.233Z,46.1
2024-01-11T05:12:04.259Z,45.4
2024-01-11T05:13:37.775Z,46.2
2024-01-11T05:15:05.286Z,45.3
2024-01-11T05:18:06.322Z,46
2024-01-11T05:21:07.343Z,45.1
2024-01-11T05:24:08.371Z,46.4
2024-01-11T05:27:09.403Z,46.4
2024-01-11T05:30:10.426Z,44.4
2024-01-11T05:33:11.460Z,45.8
2024-01-11T05:36:12.485Z,46.5
2024-01-11T05:39:13.518Z,46
2024-01-11T05:42:14.538Z,45.7
2024-01-11T05:43:47.847Z,45.7
2024-01-11T05:45:15.552Z,44.1
2024-01-11T05:48:16.577Z,44.3
2024-01-11T05:51:17.604Z,44.1
2024-01-11T05:54:18.632Z,45.5
2024-01-11T05:57:19.657Z,45.7
2024-01-11T06:00:20.690Z,43.6
2024-01-11T06:03:21.710Z,44
2024-01-11T06:06:22.739Z,42.7
2024-01-11T06:09:23.768Z,45.6
2024-01-11T06:12:24.794Z,44.6
2024-01-11T06:13:58.273Z,47.4
2024-01-11T06:15:25.827Z,49.5
2024-01-11T06:18:26.860Z,48.5
2024-01-11T06:21:27.887Z,45.9
2024-01-11T06:24:28.826Z,44.5
2024-01-11T06:27:29.941Z,44.1
2024-01-11T06:30:30.965Z,43.7
2024-01-11T06:33:31.994Z,44.1
2024-01-11T06:36:33.023Z,44
2024-01-11T06:39:34.049Z,43.8
2024-01-11T06:42:35.075Z,46.8
2024-01-11T06:44:08.651Z,47.2
2024-01-11T06:45:36.081Z,47.5
2024-01-11T06:48:37.106Z,47.6
2024-01-11T06:51:38.136Z,48.1
2024-01-11T06:54:39.165Z,49.2
2024-01-11T06:57:40.193Z,49
2024-01-11T07:00:41.216Z,48.6
2024-01-11T07:03:42.250Z,49.2
2024-01-11T07:06:43.224Z,49
2024-01-11T07:09:44.304Z,49.6
2024-01-11T07:12:45.331Z,49.3
2024-01-11T07:14:18.912Z,48.9
2024-01-11T07:15:46.358Z,48
2024-01-11T07:18:47.384Z,48.5
2024-01-11T07:21:48.420Z,48.3
2024-01-11T07:24:49.446Z,47.5
2024-01-11T07:27:50.467Z,48.4
2024-01-11T07:30:51.496Z,47.8
2024-01-11T07:33:52.527Z,47.5
2024-01-11T07:36:53.552Z,47.1
2024-01-11T07:39:54.577Z,48.2
2024-01-11T07:42:55.608Z,47.9
2024-01-11T07:44:29.191Z,46.4
2024-01-11T07:45:56.617Z,47.6
2024-01-11T07:48:57.643Z,48.8
2024-01-11T07:51:58.670Z,48.6
2024-01-11T07:54:59.700Z,48.1
2024-01-11T07:58:00.726Z,47.2
2024-01-11T08:01:01.753Z,47.8
2024-01-11T08:04:02.779Z,47.4
2024-01-11T08:07:03.801Z,49.1
2024-01-11T08:10:04.832Z,46.9
2024-01-11T08:13:05.866Z,49.1
2024-01-11T08:14:39.479Z,47.9
2024-01-11T08:16:06.894Z,48.7
2024-01-11T08:19:07.917Z,47.3
2024-01-11T08:22:08.943Z,48.2
2024-01-11T08:25:09.976Z,48.9
2024-01-11T08:28:11.004Z,46.8
2024-01-11T08:31:12.024Z,48.4
2024-01-11T08:34:13.060Z,50.2
2024-01-11T08:37:14.080Z,49.4
2024-01-11T08:40:15.113Z,50.8
2024-01-11T08:43:16.138Z,48.5
2024-01-11T08:44:49.750Z,49
2024-01-11T08:46:17.141Z,48.6
2024-01-11T08:49:18.166Z,50
2024-01-11T08:52:19.200Z,50.3
2024-01-11T08:55:20.229Z,47.7
2024-01-11T08:58:21.248Z,48.2
2024-01-11T09:01:22.282Z,50.3
2024-01-11T09:04:23.307Z,47.8
2024-01-11T09:07:24.333Z,47.7
2024-01-11T09:10:25.360Z,49.1
2024-01-11T09:13:26.391Z,48.9
2024-01-11T09:15:00.044Z,49.2
2024-01-11T09:16:27.418Z,48.3
2024-01-11T09:19:28.444Z,47.7
2024-01-11T09:22:29.471Z,47.3
2024-01-11T09:25:30.501Z,46.9
2024-01-11T09:28:31.526Z,47
2024-01-11T09:31:32.554Z,49.7
2024-01-11T09:34:33.583Z,47.5
2024-01-11T09:37:34.606Z,46.4
2024-01-11T09:40:35.636Z,47.7
2024-01-11T09:43:36.659Z,47.8
2024-01-11T09:45:10.304Z,47.7
2024-01-11T09:46:37.658Z,48.2
2024-01-11T09:49:38.691Z,47.9
2024-01-11T09:52:39.711Z,48.1
2024-01-11T09:58:41.767Z,48.1
2024-01-11T10:01:42.791Z,47.2
2024-01-11T10:04:43.822Z,47.8
2024-01-11T10:07:44.851Z,46.3
2024-01-11T10:10:45.873Z,46.7
2024-01-11T10:13:46.904Z,46.5
2024-01-11T10:15:20.532Z,46.6
2024-01-11T10:16:47.930Z,45.3
2024-01-11T10:19:48.954Z,43.7
2024-01-11T10:22:49.985Z,45
2024-01-11T10:25:51.005Z,45.3
2024-01-11T10:28:52.031Z,45.7
2024-01-11T10:31:53.060Z,44.5
2024-01-11T10:34:54.093Z,44.4
2024-01-11T10:37:55.119Z,42.3
2024-01-11T10:40:56.146Z,43.9
2024-01-11T10:43:57.174Z,43.8
2024-01-11T10:45:30.852Z,43.6
2024-01-11T10:46:58.124Z,44.6
2024-01-11T10:49:59.205Z,44
2024-01-11T10:53:00.232Z,46.1
2024-01-11T10:56:01.253Z,45
2024-01-11T10:59:02.283Z,44.5
2024-01-11T11:02:03.309Z,44.6
2024-01-11T11:05:04.333Z,43.2
2024-01-11T11:08:05.362Z,43.8
2024-01-11T11:11:06.441Z,40.5
2024-01-11T11:14:07.415Z,42.9
2024-01-11T11:15:41.135Z,42.1
2024-01-11T11:17:08.440Z,40.6
2024-01-11T11:20:09.471Z,41.8
2024-01-11T11:23:10.497Z,40.2
2024-01-11T11:26:11.519Z,40.2
2024-01-11T11:29:12.540Z,42.9
2024-01-11T11:32:13.576Z,39.3
2024-01-11T11:35:14.599Z,40.3
2024-01-11T11:38:15.623Z,39.7
2024-01-11T11:41:16.646Z,41.9
2024-01-11T11:44:17.671Z,38.3
2024-01-11T11:47:18.679Z,37.3
2024-01-11T11:50:19.703Z,35.8
2024-01-11T11:53:20.725Z,36.4
2024-01-11T11:56:21.747Z,36.5
2024-01-11T11:59:22.778Z,36.4
2024-01-11T12:02:23.798Z,35.9
2024-01-11T12:05:24.832Z,38.7
2024-01-11T12:08:25.855Z,38.6
2024-01-11T12:11:26.875Z,39
2024-01-11T12:14:27.904Z,38.7
2024-01-11T12:16:01.668Z,37.9
2024-01-11T12:17:28.929Z,38.2
2024-01-11T12:20:29.951Z,38.6
2024-01-11T12:23:30.981Z,36.9
2024-01-11T12:26:32.002Z,37.4
2024-01-11T12:29:33.031Z,36.9
2024-01-11T12:32:34.062Z,37.7
2024-01-11T12:35:35.078Z,36.4
2024-01-11T12:41:37.130Z,35
2024-01-11T12:44:38.131Z,35.9
2024-01-11T12:46:11.919Z,34.9
2024-01-11T12:47:39.166Z,35.5
2024-01-11T12:50:40.189Z,35.3
2024-01-11T12:53:41.212Z,36
2024-01-11T12:56:42.238Z,35.2
2024-01-11T12:59:43.267Z,34.8
2024-01-11T13:02:44.292Z,36.5
2024-01-11T13:05:45.317Z,35.5
2024-01-11T13:08:46.342Z,36.9
2024-01-11T13:11:47.364Z,35.5
2024-01-11T13:16:22.188Z,36.1
2024-01-11T13:17:49.421Z,33.7
2024-01-11T13:20:50.443Z,33.4
2024-01-11T13:23:51.465Z,32.4
2024-01-11T13:26:52.490Z,34.7
2024-01-11T13:29:53.518Z,33.5
2024-01-11T13:35:55.567Z,35.5
2024-01-11T13:38:56.593Z,37.3
2024-01-11T13:41:57.616Z,37.5
2024-01-11T13:44:58.618Z,38.3
2024-01-11T13:46:32.424Z,38.6
2024-01-11T13:47:59.670Z,39
2024-01-11T13:51:00.667Z,38.1
2024-01-11T13:54:01.688Z,40.3
2024-01-11T13:57:02.720Z,38.4
2024-01-11T14:00:03.745Z,38
2024-01-11T14:03:04.772Z,36.3
2024-01-11T14:06:05.796Z,35.2
2024-01-11T14:09:06.814Z,35.1
2024-01-11T14:12:07.841Z,32.9
2024-01-11T14:15:08.866Z,28.2
2024-01-11T14:16:42.702Z,21.4
2024-01-11T14:18:09.902Z,22.2
2024-01-11T14:21:10.922Z,23.2
2024-01-11T14:24:11.948Z,22
2024-01-11T14:27:12.973Z,23.2
2024-01-11T14:30:13.997Z,23.6
2024-01-11T14:33:15.030Z,23.6
2024-01-11T14:36:16.049Z,22.1
2024-01-11T14:39:17.079Z,22.1
2024-01-11T14:42:18.107Z,23
2024-01-11T14:45:19.109Z,23.4
2024-01-11T14:46:52.961Z,23.1
2024-01-11T14:48:20.136Z,23.5
2024-01-11T14:51:21.161Z,23.7
2024-01-11T14:54:22.182Z,24
2024-01-11T14:57:23.215Z,22.7
2024-01-11T15:00:24.235Z,23.3
2024-01-11T15:03:25.266Z,21.6
2024-01-11T15:06:26.290Z,21.2
2024-01-11T15:09:27.319Z,21.8
2024-01-11T15:12:28.346Z,20.7
2024-01-11T15:15:29.373Z,19.9
2024-01-11T15:17:03.234Z,18.6
2024-01-11T15:18:30.396Z,18.7
2024-01-11T15:21:31.424Z,18.4
2024-01-11T15:24:32.447Z,18
2024-01-11T15:27:33.474Z,17.9
2024-01-11T15:30:34.504Z,18.2
2024-01-11T15:33:35.532Z,20.6
2024-01-11T15:36:36.553Z,21
2024-01-11T15:39:37.584Z,20.9
2024-01-11T15:42:38.609Z,20.9
2024-01-11T15:45:39.611Z,20.6
2024-01-11T15:47:13.495Z,20
2024-01-11T15:48:40.644Z,19.9
2024-01-11T15:51:41.661Z,19.4
2024-01-11T15:54:42.693Z,20.1
2024-01-11T15:57:43.720Z,19.6
2024-01-11T16:00:44.749Z,19.3
2024-01-11T16:03:45.776Z,20.4
2024-01-11T16:06:46.803Z,19.6
2024-01-11T16:09:47.821Z,18.3
2024-01-11T16:12:48.849Z,17.3
2024-01-11T16:17:23.782Z,16.2
2024-01-11T16:18:50.908Z,14.3
2024-01-11T16:21:51.931Z,15.1
2024-01-11T16:24:52.958Z,14.6
2024-01-11T16:27:53.983Z,13.6
2024-01-11T16:30:55.009Z,13.8
2024-01-11T16:33:56.043Z,13.6
2024-01-11T16:36:57.068Z,13.9
2024-01-11T16:39:58.091Z,13.7
2024-01-11T16:42:59.120Z,14.3
2024-01-11T16:46:00.121Z,13
2024-01-11T16:47:34.041Z,13.7
2024-01-11T16:49:01.146Z,13
2024-01-11T16:52:02.175Z,13.1
2024-01-11T16:55:03.205Z,13.7
2024-01-11T16:58:04.226Z,13.8
2024-01-11T17:01:05.256Z,13.1
2024-01-11T17:04:06.280Z,13.1
2024-01-11T17:07:07.312Z,13.8
2024-01-11T17:10:08.340Z,14.5
2024-01-11T17:13:09.357Z,13.5
2024-01-11T17:16:10.390Z,13.6
2024-01-11T17:17:44.326Z,13.4
2024-01-11T17:19:11.412Z,12.7
2024-01-11T17:22:12.443Z,13.4
2024-01-11T17:25:13.473Z,13.1
2024-01-11T17:28:14.496Z,13.2
2024-01-11T17:31:15.520Z,13.8
2024-01-11T17:34:16.552Z,14.2
2024-01-11T17:37:17.572Z,13.9
2024-01-11T17:40:18.606Z,12.9
2024-01-11T17:43:19.627Z,14.1
2024-01-11T17:46:20.627Z,13.8
2024-01-11T17:47:54.585Z,14.8
2024-01-11T17:49:21.651Z,14.7
2024-01-11T17:52:22.676Z,14.5
2024-01-11T17:55:23.705Z,14.7
2024-01-11T17:58:24.729Z,15.1
2024-01-11T18:01:25.759Z,13.8
2024-01-11T18:04:26.788Z,14.8
2024-01-11T18:07:27.815Z,15.2
2024-01-11T18:10:28.837Z,15.2
2024-01-11T18:13:29.864Z,15.8
2024-01-11T18:16:30.890Z,15.5
2024-01-11T18:18:04.865Z,16.3
2024-01-11T18:19:31.917Z,16.5
2024-01-11T18:22:32.948Z,17.3
2024-01-11T18:25:33.976Z,16.9
2024-01-11T18:28:34.996Z,16.9
2024-01-11T18:31:36.023Z,17.3
2024-01-11T18:34:37.047Z,16.7
2024-01-11T18:37:38.073Z,17.6
2024-01-11T18:40:39.107Z,16.1
2024-01-11T18:43:40.132Z,17.8
2024-01-11T18:46:41.136Z,17
2024-01-11T18:48:15.130Z,17.6
2024-01-11T18:49:42.167Z,17.8
2024-01-11T18:52:43.187Z,17.8
2024-01-11T18:55:44.216Z,18.3
2024-01-11T18:58:45.242Z,18.5
2024-01-11T19:01:46.264Z,18.6
2024-01-11T19:04:47.290Z,17.6
2024-01-11T19:07:48.322Z,19.9
2024-01-11T19:10:49.347Z,20.6
2024-01-11T19:13:50.375Z,21.9
2024-01-11T19:18:25.413Z,18.6
2024-01-11T19:19:52.429Z,20.2
2024-01-11T19:22:53.459Z,19.7
2024-01-11T19:25:54.480Z,19.9
2024-01-11T19:28:55.505Z,20.7
2024-01-11T19:31:56.527Z,19.9
2024-01-11T19:34:57.556Z,21
2024-01-11T19:37:58.583Z,21.6
2024-01-11T19:40:59.610Z,21.4
2024-01-11T19:44:00.633Z,22.1
2024-01-11T19:47:01.641Z,22
2024-01-11T19:48:35.666Z,22.6
2024-01-11T19:50:02.669Z,22.4
2024-01-11T19:53:03.690Z,22.4
2024-01-11T19:56:04.717Z,22.5
2024-01-11T19:59:05.746Z,22.9
2024-01-11T20:02:06.773Z,22.6
2024-01-11T20:05:07.796Z,21.5
2024-01-11T20:08:08.822Z,21.7
2024-01-11T20:11:09.855Z,22.3
2024-01-11T20:14:10.878Z,22.3
2024-01-11T20:17:11.902Z,23.1
2024-01-11T20:20:12.928Z,22.6
2024-01-11T20:23:13.956Z,24.1
2024-01-11T20:26:14.980Z,23.3
2024-01-11T20:29:16.013Z,24.1
2024-01-11T20:32:17.034Z,23.2
2024-01-11T20:35:18.065Z,23.1
2024-01-11T20:38:19.086Z,24.4
2024-01-11T20:41:20.115Z,25.5
2024-01-11T20:44:21.136Z,25.3
2024-01-11T20:47:22.141Z,25.4
2024-01-11T20:48:56.203Z,25.4
2024-01-11T20:50:23.169Z,25.6
2024-01-11T20:53:24.193Z,26.1
2024-01-11T20:56:25.214Z,24.9
2024-01-11T20:59:26.242Z,26.2
2024-01-11T21:02:27.267Z,26.9
2024-01-11T21:05:28.293Z,26.7
2024-01-11T21:08:29.322Z,27.1
2024-01-11T21:11:30.345Z,27.7
2024-01-11T21:14:31.378Z,27.7
2024-01-11T21:17:32.401Z,28.1
2024-01-11T21:19:06.485Z,27.1
2024-01-11T21:20:33.432Z,28
2024-01-11T21:23:34.456Z,28.7
2024-01-11T21:26:35.480Z,28.6
2024-01-11T21:29:36.507Z,28
2024-01-11T21:32:37.537Z,26.4
2024-01-11T21:35:38.562Z,26.9
2024-01-11T21:38:39.585Z,28.1
2024-01-11T21:41:40.610Z,27.7
2024-01-11T21:44:41.613Z,28
2024-01-11T21:47:42.638Z,28
2024-01-11T21:49:16.740Z,27.9
2024-01-11T21:50:43.663Z,27.9
2024-01-11T21:53:44.698Z,28.3
2024-01-11T21:56:45.716Z,28.9
2024-01-11T21:59:46.742Z,29.6
2024-01-11T22:02:47.771Z,29
2024-01-11T22:05:48.793Z,29.4
2024-01-11T22:11:50.842Z,30.6
2024-01-11T22:14:51.870Z,30.2
2024-01-11T22:17:52.897Z,30.4
2024-01-11T22:19:27.013Z,29.4
2024-01-11T22:20:53.924Z,29.8
2024-01-11T22:23:54.947Z,30.9
2024-01-11T22:26:55.979Z,30.5
2024-01-11T22:29:56.997Z,30.4
2024-01-11T22:32:58.027Z,29.6
2024-01-11T22:35:59.046Z,29.7
2024-01-11T22:39:00.074Z,30.2
2024-01-11T22:42:01.110Z,30.6
2024-01-11T22:45:02.096Z,29.8
2024-01-11T22:48:03.122Z,30.2
2024-01-11T22:49:37.259Z,31
2024-01-11T22:51:04.146Z,30.1
2024-01-11T22:57:06.198Z,29.8
2024-01-11T23:00:07.223Z,30.5
2024-01-11T23:03:08.252Z,29.9
2024-01-11T23:06:09.274Z,30.1
2024-01-11T23:09:10.297Z,29.8
2024-01-11T23:12:11.324Z,30.5
2024-01-11T23:15:12.348Z,28.6
2024-01-11T23:18:13.377Z,29.1
2024-01-11T23:19:47.529Z,28.9
2024-01-11T23:21:14.410Z,28.9
2024-01-11T23:24:15.429Z,29.7
2024-01-11T23:27:16.456Z,29.8
2024-01-11T23:30:17.484Z,28.4
2024-01-11T23:33:18.504Z,29.8
2024-01-11T23:36:19.534Z,28
2024-01-11T23:39:20.559Z,28.2
2024-01-11T23:42:21.581Z,28
2024-01-11T23:45:22.593Z,27.5
2024-01-11T23:48:23.609Z,26.8
2024-01-11T23:49:57.783Z,25.7
2024-01-11T23:51:24.643Z,27
2024-01-11T23:54:25.665Z,27
2024-01-11T23:57:26.691Z,25.4
